createdAt,value
2023-04-30T00:00:41.217Z,19.50
2023-04-30T00:01:44.077Z,19.85
2023-04-30T00:02:48.051Z,20.10
2023-04-30T00:03:50.934Z,19.95
2023-04-30T00:04:53.815Z,20.27
2023-04-30T00:05:56.795Z,20.60
2023-04-30T00:07:01.470Z,20.45
2023-04-30T00:08:04.243Z,19.60
2023-04-30T00:09:08.175Z,20.05
2023-04-30T00:10:11.473Z,19.65
2023-04-30T00:11:13.237Z,20.52
2023-04-30T00:12:16.037Z,20.58
2023-04-30T00:13:18.917Z,19.38
2023-04-30T00:14:21.244Z,20.35
2023-04-30T00:15:23.637Z,20.35
2023-04-30T00:16:26.234Z,20.75
2023-04-30T00:17:29.048Z,20.38
2023-04-30T00:18:31.545Z,21.50
2023-04-30T00:19:33.904Z,20.23
2023-04-30T00:20:37.225Z,20.65
2023-04-30T00:21:39.862Z,20.25
2023-04-30T00:22:46.934Z,20.35
2023-04-30T00:23:49.321Z,20.35
2023-04-30T00:24:53.370Z,21.42
2023-04-30T00:25:56.270Z,21.13
2023-04-30T00:26:59.184Z,20.13
2023-04-30T00:28:01.818Z,20.17
2023-04-30T00:29:05.171Z,20.50
2023-04-30T00:30:08.560Z,20.10
2023-04-30T00:31:11.448Z,19.00
2023-04-30T00:32:14.572Z,20.25
2023-04-30T00:33:17.992Z,19.88
2023-04-30T00:34:21.002Z,19.95
2023-04-30T00:35:23.793Z,20.67
2023-04-30T00:36:27.047Z,18.90
2023-04-30T00:37:34.682Z,20.35
2023-04-30T00:38:37.655Z,20.83
2023-04-30T00:39:40.927Z,20.73
2023-04-30T00:40:44.494Z,21.35
2023-04-30T00:41:47.606Z,20.88
2023-04-30T00:42:56.058Z,19.80
2023-04-30T00:43:59.049Z,21.13
2023-04-30T00:45:05.931Z,20.55
2023-04-30T00:46:11.056Z,20.25
2023-04-30T00:47:18.981Z,21.52
2023-04-30T00:48:22.028Z,21.85
2023-04-30T00:49:25.177Z,21.05
2023-04-30T00:50:29.022Z,21.27
2023-04-30T00:51:33.388Z,22.83
2023-04-30T00:53:27.830Z,21.92
2023-04-30T00:54:32.046Z,20.25
2023-04-30T00:55:34.770Z,21.75
2023-04-30T00:56:37.971Z,23.00
2023-04-30T00:58:07.846Z,21.77
2023-04-30T00:59:12.206Z,22.30
2023-04-30T01:00:16.097Z,22.42
2023-04-30T01:01:19.528Z,23.48
2023-04-30T01:02:55.308Z,22.52
2023-04-30T01:03:58.443Z,22.52
2023-04-30T01:05:01.617Z,23.02
2023-04-30T01:06:06.396Z,22.15
2023-04-30T01:07:10.996Z,25.13
2023-04-30T01:08:13.811Z,23.23
2023-04-30T01:09:17.240Z,28.05
2023-04-30T01:10:31.182Z,25.90
2023-04-30T01:12:14.976Z,24.83
2023-04-30T01:13:30.289Z,24.45
2023-04-30T01:14:52.188Z,23.92
2023-04-30T01:16:00.881Z,24.58
2023-04-30T01:17:13.859Z,25.23
2023-04-30T01:18:42.368Z,25.90
2023-04-30T01:19:46.599Z,25.63
2023-04-30T01:20:54.713Z,24.95
2023-04-30T01:22:01.779Z,23.92
2023-04-30T01:23:42.324Z,26.35
2023-04-30T01:25:15.543Z,24.73
2023-04-30T01:26:47.530Z,24.63
2023-04-30T01:28:08.477Z,25.27
2023-04-30T01:29:14.639Z,26.38
2023-04-30T01:30:19.481Z,25.98
2023-04-30T01:31:24.639Z,25.88
2023-04-30T01:32:29.386Z,27.60
2023-04-30T01:33:32.532Z,28.13
2023-04-30T01:34:35.285Z,27.38
2023-04-30T01:35:53.798Z,31.20
2023-04-30T01:37:22.731Z,36.72
2023-04-30T01:38:49.670Z,38.92
2023-04-30T01:40:10.092Z,40.28
2023-04-30T01:41:41.487Z,37.40
2023-04-30T01:43:11.291Z,37.33
2023-04-30T01:44:43.348Z,40.03
2023-04-30T01:46:07.185Z,38.78
2023-04-30T01:47:20.542Z,35.53
2023-04-30T01:48:44.924Z,33.40
2023-04-30T01:50:03.779Z,34.13
2023-04-30T01:51:47.341Z,32.03
2023-04-30T01:52:57.349Z,31.95
2023-04-30T01:54:06.299Z,34.95
2023-04-30T01:55:14.233Z,32.67
2023-04-30T01:56:24.128Z,35.58
2023-04-30T01:57:35.011Z,31.58
2023-04-30T01:58:40.786Z,31.08
2023-04-30T01:59:44.437Z,30.88
2023-04-30T02:00:47.148Z,32.25
2023-04-30T02:01:50.423Z,31.73
2023-04-30T02:02:56.579Z,32.13
2023-04-30T02:04:00.276Z,32.78
2023-04-30T02:05:04.600Z,32.00
2023-04-30T02:06:08.680Z,28.38
2023-04-30T02:07:30.343Z,29.73
2023-04-30T02:08:33.594Z,30.10
2023-04-30T02:09:38.595Z,31.73
2023-04-30T02:10:41.814Z,31.45
2023-04-30T02:11:45.513Z,29.50
2023-04-30T02:12:51.526Z,30.70
2023-04-30T02:13:54.199Z,29.65
2023-04-30T02:14:57.601Z,30.15
2023-04-30T02:16:00.259Z,31.52
2023-04-30T02:17:02.412Z,34.15
2023-04-30T02:18:04.985Z,32.72
2023-04-30T02:19:07.470Z,33.72
2023-04-30T02:20:11.707Z,32.03
2023-04-30T02:21:14.587Z,32.58
2023-04-30T02:22:17.881Z,30.58
2023-04-30T02:23:22.096Z,30.20
2023-04-30T02:24:25.412Z,31.25
2023-04-30T02:25:30.487Z,29.05
2023-04-30T02:26:33.993Z,29.42
2023-04-30T02:28:27.094Z,29.30
2023-04-30T02:29:31.002Z,27.70
2023-04-30T02:30:35.211Z,27.02
2023-04-30T02:31:38.547Z,27.13
2023-04-30T02:32:46.049Z,25.17
2023-04-30T02:33:51.713Z,26.55
2023-04-30T02:34:56.381Z,26.85
2023-04-30T02:36:01.059Z,26.23
2023-04-30T02:37:04.349Z,25.90
2023-04-30T02:38:12.166Z,26.33
2023-04-30T02:39:16.084Z,26.08
2023-04-30T02:40:20.987Z,25.25
2023-04-30T02:41:24.490Z,25.17
2023-04-30T02:42:55.230Z,24.65
2023-04-30T02:43:58.247Z,24.90
2023-04-30T02:45:01.125Z,24.55
2023-04-30T02:46:06.987Z,25.35
2023-04-30T02:47:09.972Z,26.15
2023-04-30T02:48:43.880Z,27.60
2023-04-30T02:49:46.764Z,26.38
2023-04-30T02:50:49.924Z,25.92
2023-04-30T02:51:52.807Z,25.45
2023-04-30T02:53:01.048Z,25.42
2023-04-30T02:54:03.785Z,26.20
2023-04-30T02:55:07.449Z,27.17
2023-04-30T02:56:11.646Z,28.23
2023-04-30T02:57:14.719Z,27.13
2023-04-30T02:58:20.280Z,25.67
2023-04-30T02:59:24.208Z,26.67
2023-04-30T03:00:27.269Z,26.48
2023-04-30T03:01:30.181Z,25.42
2023-04-30T03:02:35.155Z,26.67
2023-04-30T03:03:38.188Z,25.80
2023-04-30T03:04:42.362Z,26.83
2023-04-30T03:05:45.621Z,25.55
2023-04-30T03:06:48.379Z,26.80
2023-04-30T03:07:54.065Z,26.52
2023-04-30T03:08:57.206Z,26.95
2023-04-30T03:10:01.212Z,27.20
2023-04-30T03:11:04.222Z,27.23
2023-04-30T03:12:07.034Z,28.02
2023-04-30T03:13:12.001Z,26.98
2023-04-30T03:14:16.841Z,27.67
2023-04-30T03:15:19.491Z,26.90
2023-04-30T03:16:22.975Z,26.92
2023-04-30T03:17:26.670Z,28.50
2023-04-30T03:18:31.511Z,30.35
2023-04-30T03:19:34.546Z,29.58
2023-04-30T03:20:40.265Z,30.35
2023-04-30T03:21:43.217Z,31.83
2023-04-30T03:22:50.823Z,31.23
2023-04-30T03:23:53.520Z,31.30
2023-04-30T03:24:56.486Z,32.80
2023-04-30T03:25:59.964Z,32.38
2023-04-30T03:27:03.823Z,32.53
2023-04-30T03:28:09.089Z,31.42
2023-04-30T03:29:12.432Z,32.50
2023-04-30T03:30:16.500Z,32.63
2023-04-30T03:31:19.625Z,33.08
2023-04-30T03:32:24.815Z,34.55
2023-04-30T03:33:33.383Z,34.53
2023-04-30T03:34:36.532Z,35.08
2023-04-30T03:35:39.388Z,33.45
2023-04-30T03:36:44.503Z,33.58
2023-04-30T03:38:18.066Z,39.60
2023-04-30T03:39:21.051Z,38.63
2023-04-30T03:40:26.011Z,39.00
2023-04-30T03:41:29.132Z,40.03
2023-04-30T03:42:31.728Z,40.95
2023-04-30T03:43:34.958Z,40.42
2023-04-30T03:44:39.136Z,39.15
2023-04-30T03:45:42.615Z,33.33
2023-04-30T03:46:45.868Z,33.47
2023-04-30T03:54:04.333Z,31.63
2023-04-30T03:55:07.875Z,31.58
2023-04-30T03:56:18.732Z,27.67
2023-04-30T03:57:23.084Z,26.92
2023-04-30T03:58:56.982Z,25.63
2023-04-30T04:00:02.282Z,25.33
2023-04-30T04:01:07.128Z,25.40
2023-04-30T04:02:11.110Z,25.05
2023-04-30T04:03:42.666Z,26.70
2023-04-30T04:04:45.690Z,25.67
2023-04-30T04:05:49.056Z,25.48
2023-04-30T04:06:51.911Z,26.23
2023-04-30T04:10:40.588Z,26.65
2023-04-30T04:11:46.165Z,28.88
2023-04-30T04:12:52.107Z,29.17
2023-04-30T04:13:56.035Z,28.42
2023-04-30T04:14:58.726Z,28.38
2023-04-30T04:16:03.797Z,28.15
2023-04-30T04:17:07.775Z,28.70
2023-04-30T04:21:38.155Z,28.67
2023-04-30T04:25:46.730Z,28.60
2023-04-30T04:26:49.406Z,28.08
2023-04-30T04:27:54.865Z,28.92
2023-04-30T04:28:57.954Z,29.95
2023-04-30T04:30:00.764Z,26.98
2023-04-30T04:31:03.773Z,25.90
2023-04-30T04:32:06.935Z,26.35
2023-04-30T04:33:15.044Z,26.30
2023-04-30T04:34:20.515Z,25.95
2023-04-30T04:35:22.947Z,23.67
2023-04-30T04:36:27.730Z,25.52
2023-04-30T04:37:32.373Z,26.50
2023-04-30T04:39:02.500Z,26.40
2023-04-30T04:40:06.423Z,25.73
2023-04-30T04:41:09.195Z,25.23
2023-04-30T04:42:12.633Z,24.27
2023-04-30T04:43:45.051Z,25.42
2023-04-30T04:44:48.909Z,24.80
2023-04-30T04:45:55.936Z,26.27
2023-04-30T04:46:58.951Z,24.98
2023-04-30T04:48:02.939Z,24.58
2023-04-30T04:49:05.860Z,25.25
2023-04-30T04:50:11.202Z,25.33
2023-04-30T04:51:13.711Z,27.45
2023-04-30T04:52:16.319Z,27.98
2023-04-30T04:53:21.356Z,26.92
2023-04-30T04:54:24.004Z,28.95
2023-04-30T04:55:26.760Z,27.85
2023-04-30T04:56:29.142Z,27.95
2023-04-30T04:57:36.908Z,29.27
2023-04-30T04:58:43.435Z,27.35
2023-04-30T04:59:46.170Z,29.80
2023-04-30T05:00:48.401Z,29.73
2023-04-30T05:01:51.067Z,27.75
2023-04-30T05:02:53.700Z,30.35
2023-04-30T05:03:57.969Z,27.52
2023-04-30T05:06:42.802Z,25.27
2023-04-30T05:07:45.369Z,25.38
2023-04-30T05:09:16.908Z,24.10
2023-04-30T05:10:19.236Z,22.75
2023-04-30T05:11:23.227Z,22.00
2023-04-30T05:12:27.250Z,20.25
2023-04-30T05:15:08.404Z,20.20
2023-04-30T05:16:10.728Z,19.38
2023-04-30T05:17:13.148Z,19.67
2023-04-30T05:18:15.232Z,19.00
2023-04-30T05:19:17.336Z,17.58
2023-04-30T05:20:19.184Z,17.23
2023-04-30T05:21:21.083Z,16.48
2023-04-30T05:22:23.131Z,16.40
2023-04-30T05:23:25.063Z,17.52
2023-04-30T05:24:28.295Z,17.10
2023-04-30T05:25:30.506Z,17.13
2023-04-30T05:26:32.548Z,16.15
2023-04-30T05:27:34.450Z,16.60
2023-04-30T05:28:36.530Z,15.82
2023-04-30T05:29:38.807Z,14.68
2023-04-30T05:30:40.739Z,12.98
2023-04-30T05:31:42.624Z,16.50
2023-04-30T05:32:50.829Z,11.15
2023-04-30T05:33:53.164Z,14.35
2023-04-30T05:34:55.746Z,13.52
2023-04-30T05:35:57.648Z,13.60
2023-04-30T05:36:59.573Z,15.43
2023-04-30T05:38:03.139Z,15.20
2023-04-30T05:39:05.073Z,14.90
2023-04-30T05:40:07.549Z,14.60
2023-04-30T05:41:12.542Z,16.02
2023-04-30T05:42:14.662Z,13.35
2023-04-30T05:43:16.996Z,14.65
2023-04-30T05:44:18.903Z,13.85
2023-04-30T05:45:20.881Z,13.45
2023-04-30T05:46:22.912Z,13.43
2023-04-30T05:47:24.978Z,14.07
2023-04-30T05:48:27.611Z,14.45
2023-04-30T05:49:29.534Z,14.85
2023-04-30T05:50:31.675Z,15.18
2023-04-30T05:51:33.647Z,15.23
2023-04-30T05:52:35.784Z,15.05
2023-04-30T05:53:37.963Z,15.45
2023-04-30T05:54:39.719Z,15.52
2023-04-30T05:55:42.330Z,16.30
2023-04-30T05:56:44.349Z,15.40
2023-04-30T05:57:46.512Z,15.93
2023-04-30T05:58:48.810Z,15.27
2023-04-30T05:59:50.731Z,15.20
2023-04-30T06:00:53.562Z,14.65
2023-04-30T06:01:55.653Z,15.23
2023-04-30T06:02:57.495Z,14.60
2023-04-30T06:04:01.340Z,14.75
2023-04-30T06:05:03.698Z,15.27
2023-04-30T06:06:06.096Z,15.45
2023-04-30T06:07:08.147Z,15.63
2023-04-30T06:08:10.119Z,15.48
2023-04-30T06:09:11.908Z,12.93
2023-04-30T06:10:13.827Z,14.25
2023-04-30T06:11:15.864Z,13.60
2023-04-30T06:12:17.691Z,13.02
2023-04-30T06:13:23.019Z,13.35
2023-04-30T06:14:25.008Z,12.93
2023-04-30T06:15:27.193Z,12.25
2023-04-30T06:16:29.689Z,13.43
2023-04-30T06:17:31.711Z,13.20
2023-04-30T06:18:34.375Z,13.23
2023-04-30T06:19:36.430Z,12.93
2023-04-30T06:20:38.390Z,13.05
2023-04-30T06:21:40.433Z,12.43
2023-04-30T06:22:43.557Z,13.07
2023-04-30T06:23:46.638Z,13.00
2023-04-30T06:24:48.513Z,10.48
2023-04-30T06:25:50.336Z,10.73
2023-04-30T06:26:52.480Z,11.43
2023-04-30T06:27:54.527Z,11.27
2023-04-30T06:28:58.132Z,10.23
2023-04-30T06:30:01.253Z,9.77
2023-04-30T06:31:04.070Z,8.75
2023-04-30T06:32:08.542Z,9.15
2023-04-30T06:33:10.960Z,7.93
2023-04-30T06:34:14.140Z,8.60
2023-04-30T06:35:16.120Z,8.50
2023-04-30T06:36:18.905Z,8.55
2023-04-30T06:37:21.069Z,8.25
2023-04-30T06:38:23.200Z,8.25
2023-04-30T06:39:25.568Z,8.35
2023-04-30T06:40:27.680Z,7.93
2023-04-30T06:41:29.678Z,8.15
2023-04-30T06:42:35.371Z,8.05
2023-04-30T06:43:38.409Z,8.23
2023-04-30T06:44:41.585Z,7.80
2023-04-30T06:45:44.030Z,8.15
2023-04-30T06:46:46.019Z,6.88
2023-04-30T06:47:50.530Z,6.95
2023-04-30T06:48:52.805Z,6.20
2023-04-30T06:49:58.918Z,6.90
2023-04-30T06:51:03.357Z,6.63
2023-04-30T06:52:05.454Z,5.90
2023-04-30T06:53:08.384Z,6.47
2023-04-30T06:54:32.820Z,6.57
2023-04-30T06:55:36.778Z,7.22
2023-04-30T06:56:40.098Z,5.68
2023-04-30T07:00:23.154Z,5.50
2023-04-30T07:01:26.993Z,5.40
2023-04-30T07:02:37.720Z,5.57
2023-04-30T07:06:27.558Z,6.18
2023-04-30T07:08:50.967Z,5.57
2023-04-30T07:10:18.916Z,5.30
2023-04-30T07:11:20.919Z,5.00
2023-04-30T07:12:23.706Z,5.22
2023-04-30T07:13:26.332Z,5.25
2023-04-30T07:15:05.309Z,4.97
2023-04-30T07:16:44.308Z,5.45
2023-04-30T07:17:47.085Z,5.57
2023-04-30T07:22:46.363Z,4.80
2023-04-30T12:45:57.206Z,3.60
2023-04-30T14:27:52.733Z,5.22
2023-04-30T14:29:14.781Z,5.97
2023-04-30T14:31:24.704Z,5.55
2023-04-30T14:33:18.407Z,5.15
2023-04-30T14:35:55.565Z,5.10
2023-04-30T14:52:10.017Z,6.28
2023-04-30T14:54:25.772Z,7.03
2023-04-30T14:59:15.454Z,6.30
2023-04-30T15:03:50.377Z,5.35
2023-04-30T15:05:28.397Z,5.50
2023-04-30T15:06:34.021Z,5.95
2023-04-30T15:07:40.084Z,5.00
2023-04-30T15:08:44.660Z,5.43
2023-04-30T15:09:56.326Z,5.82
2023-04-30T15:13:11.869Z,4.80
2023-04-30T15:14:26.134Z,4.70
2023-04-30T15:16:26.915Z,4.60
2023-04-30T15:17:30.092Z,4.65
2023-04-30T15:18:35.441Z,4.50
2023-04-30T15:19:40.657Z,5.00
2023-04-30T15:21:34.352Z,4.85
2023-04-30T15:22:37.407Z,4.93
2023-04-30T15:23:41.300Z,4.63
2023-04-30T15:24:44.889Z,4.70
2023-04-30T15:25:49.579Z,4.60
2023-04-30T15:26:54.825Z,4.90
2023-04-30T15:37:35.515Z,4.68
2023-04-30T15:39:07.287Z,4.43
2023-04-30T15:41:01.715Z,5.07
2023-04-30T15:42:09.651Z,4.82
2023-04-30T15:43:15.608Z,6.47
2023-04-30T15:44:20.825Z,5.40
2023-04-30T15:46:44.457Z,4.40
2023-04-30T15:47:48.684Z,5.50
2023-04-30T15:48:54.429Z,5.00
2023-04-30T15:50:01.852Z,5.82
2023-04-30T15:51:09.425Z,5.47
2023-04-30T15:52:13.907Z,4.72
2023-04-30T15:53:16.920Z,6.60
2023-04-30T15:56:05.962Z,6.07
2023-04-30T15:57:09.558Z,6.40
2023-04-30T15:58:13.909Z,5.57
2023-04-30T15:59:19.566Z,5.97
2023-04-30T16:01:16.479Z,5.95
2023-04-30T16:02:20.580Z,5.40
2023-04-30T16:03:26.875Z,4.88
2023-04-30T16:04:30.127Z,5.10
2023-04-30T16:05:35.488Z,5.93
2023-04-30T16:06:39.019Z,5.60
2023-04-30T16:07:47.589Z,6.30
2023-04-30T16:08:54.729Z,5.13
2023-04-30T16:10:02.779Z,5.22
2023-04-30T16:11:15.759Z,5.30
2023-04-30T16:13:08.262Z,5.10
2023-04-30T16:14:14.102Z,4.95
2023-04-30T16:15:17.970Z,5.10
2023-04-30T16:16:20.044Z,5.15
2023-04-30T16:17:22.439Z,5.28
2023-04-30T16:18:25.576Z,5.78
2023-04-30T16:19:28.754Z,6.22
2023-04-30T16:20:32.467Z,5.75
2023-04-30T16:21:36.628Z,5.30
2023-04-30T16:22:39.342Z,6.68
2023-04-30T16:23:41.579Z,5.88
2023-04-30T16:24:44.499Z,6.25
2023-04-30T16:25:47.071Z,5.80
2023-04-30T16:26:50.935Z,6.15
2023-04-30T16:27:55.042Z,5.80
2023-04-30T16:29:02.960Z,5.30
2023-04-30T16:30:09.809Z,6.05
2023-04-30T16:31:51.496Z,7.60
2023-04-30T16:33:02.352Z,5.90
2023-04-30T16:51:10.120Z,6.63
2023-04-30T16:52:12.650Z,8.32
2023-04-30T16:53:14.420Z,7.82
2023-04-30T16:54:16.537Z,7.70
2023-04-30T16:55:22.672Z,10.40
2023-04-30T16:56:24.947Z,9.98
2023-04-30T16:57:26.892Z,9.30
2023-04-30T16:58:28.960Z,8.02
2023-04-30T16:59:31.138Z,8.43
2023-04-30T17:00:34.910Z,8.77
2023-04-30T17:01:37.007Z,8.85
2023-04-30T17:02:41.003Z,9.75
2023-04-30T17:03:49.581Z,9.73
2023-04-30T17:08:06.772Z,8.55
2023-04-30T17:09:18.923Z,10.43
2023-04-30T17:10:32.224Z,9.88
2023-04-30T17:11:47.251Z,9.43
2023-04-30T17:13:08.217Z,9.07
2023-04-30T17:14:41.213Z,9.20
2023-04-30T17:18:59.477Z,10.10
2023-04-30T17:20:56.732Z,28.45
2023-04-30T17:26:01.360Z,10.40
2023-04-30T17:27:13.749Z,13.63
2023-04-30T17:28:31.122Z,10.43
2023-04-30T17:29:56.419Z,11.10
2023-04-30T17:35:13.334Z,8.75
2023-04-30T17:39:38.912Z,7.78
2023-04-30T17:43:07.743Z,7.82
2023-04-30T17:44:18.032Z,8.52
2023-04-30T17:45:28.565Z,8.20
2023-04-30T17:46:33.318Z,8.27
2023-04-30T17:48:15.800Z,7.55
2023-04-30T17:49:31.158Z,7.60
2023-04-30T17:52:43.936Z,6.63
2023-04-30T17:53:48.277Z,6.18
2023-04-30T17:54:57.054Z,6.30
2023-04-30T17:57:27.309Z,6.97
2023-04-30T17:59:00.693Z,7.20
2023-04-30T18:04:52.397Z,6.45
2023-04-30T18:26:20.936Z,4.90
2023-04-30T18:28:27.575Z,5.73
2023-04-30T18:36:14.739Z,5.90
2023-04-30T18:52:12.978Z,5.95
2023-04-30T18:53:19.495Z,6.53
2023-04-30T18:54:26.029Z,6.30
2023-04-30T18:55:35.399Z,7.15
2023-04-30T18:57:04.280Z,6.53
2023-04-30T18:58:11.222Z,7.05
2023-04-30T18:59:14.653Z,6.78
2023-04-30T19:00:16.885Z,6.53
2023-04-30T19:01:24.510Z,6.53
2023-04-30T19:02:26.649Z,6.40
2023-04-30T19:03:30.391Z,6.65
2023-04-30T19:04:32.542Z,6.80
2023-04-30T19:05:35.839Z,6.35
2023-04-30T19:06:38.064Z,6.90
2023-04-30T19:07:40.120Z,7.97
2023-04-30T19:08:43.657Z,7.38
2023-04-30T19:09:50.409Z,6.60
2023-04-30T19:10:53.313Z,7.13
2023-04-30T19:11:55.360Z,7.10
2023-04-30T19:12:57.335Z,7.70
2023-04-30T19:13:59.656Z,7.20
2023-04-30T19:15:12.862Z,7.13
2023-04-30T19:16:17.342Z,7.10
2023-04-30T19:17:24.588Z,7.70
2023-04-30T19:18:27.733Z,8.05
2023-04-30T19:19:31.334Z,6.43
2023-04-30T19:20:36.334Z,7.30
2023-04-30T19:21:39.499Z,7.07
2023-04-30T19:22:43.844Z,7.45
2023-04-30T19:23:51.595Z,7.70
2023-04-30T19:24:58.293Z,11.07
2023-04-30T19:26:29.502Z,8.65
2023-04-30T19:27:42.131Z,9.95
2023-04-30T19:28:48.267Z,7.47
2023-04-30T19:29:52.919Z,7.28
2023-04-30T19:31:14.771Z,7.03
2023-04-30T19:32:28.638Z,6.82
2023-04-30T19:33:39.734Z,6.63
2023-04-30T19:34:43.261Z,7.00
2023-04-30T19:35:57.607Z,7.20
2023-04-30T19:37:00.887Z,7.43
2023-04-30T19:38:06.242Z,6.97
2023-04-30T19:39:11.025Z,6.20
2023-04-30T19:40:14.670Z,7.35
2023-04-30T19:41:17.899Z,6.63
2023-04-30T19:42:19.987Z,7.50
2023-04-30T19:43:56.770Z,7.28
2023-04-30T19:45:01.369Z,6.65
2023-04-30T19:46:05.163Z,7.22
2023-04-30T19:47:08.657Z,7.88
2023-04-30T19:48:10.788Z,6.60
2023-04-30T19:49:15.512Z,6.93
2023-04-30T19:50:17.738Z,6.78
2023-04-30T19:51:22.205Z,7.20
2023-04-30T19:52:24.479Z,6.90
2023-04-30T19:53:27.690Z,6.97
2023-04-30T19:54:44.342Z,7.43
2023-04-30T19:55:49.166Z,7.28
2023-04-30T19:56:53.612Z,7.40
2023-04-30T19:57:56.152Z,6.50
2023-04-30T19:59:01.427Z,6.60
2023-04-30T20:00:08.667Z,7.03
2023-04-30T20:01:25.830Z,6.45
2023-04-30T20:02:30.365Z,6.70
2023-04-30T20:03:37.212Z,6.85
2023-04-30T20:04:41.713Z,6.82
2023-04-30T20:05:54.955Z,7.18
2023-04-30T20:07:03.264Z,6.75
2023-04-30T20:08:09.150Z,6.50
2023-04-30T20:09:22.115Z,6.70
2023-04-30T20:10:33.335Z,6.00
2023-04-30T20:13:37.933Z,6.40
2023-04-30T20:14:52.251Z,6.18
2023-04-30T20:16:19.380Z,6.93
2023-04-30T20:19:26.060Z,6.35
2023-04-30T20:20:31.098Z,6.47
2023-04-30T20:21:39.468Z,6.55
2023-04-30T20:22:42.950Z,6.22
2023-04-30T20:23:46.504Z,6.78
2023-04-30T20:24:50.734Z,6.25
2023-04-30T20:25:58.148Z,6.10
2023-04-30T20:27:07.450Z,6.60
2023-04-30T20:28:12.533Z,6.55
2023-04-30T20:29:18.581Z,6.63
2023-04-30T20:30:34.299Z,6.40
2023-04-30T20:31:38.325Z,6.28
2023-04-30T20:32:45.095Z,6.30
2023-04-30T20:33:48.928Z,5.95
2023-04-30T20:34:56.067Z,6.75
2023-04-30T20:36:02.847Z,6.60
2023-04-30T20:37:08.541Z,6.50
2023-04-30T20:38:14.501Z,6.88
2023-04-30T20:39:17.552Z,6.30
2023-04-30T20:40:21.126Z,6.35
2023-04-30T20:41:29.711Z,5.90
2023-04-30T20:42:32.729Z,7.28
2023-04-30T20:43:46.496Z,6.25
2023-04-30T20:44:52.361Z,6.45
2023-04-30T20:46:00.037Z,6.68
2023-04-30T20:47:05.642Z,6.32
2023-04-30T20:48:09.416Z,5.95
2023-04-30T20:49:17.749Z,6.78
2023-04-30T20:50:24.906Z,6.40
2023-04-30T20:51:35.303Z,6.10
2023-04-30T20:52:42.884Z,5.25
2023-04-30T20:53:47.621Z,6.38
2023-04-30T20:54:59.650Z,6.20
2023-04-30T20:56:05.449Z,5.88
2023-04-30T20:57:14.364Z,5.75
2023-04-30T20:58:21.357Z,6.32
2023-04-30T20:59:26.886Z,5.65
2023-04-30T21:00:31.289Z,5.68
2023-04-30T21:01:36.109Z,5.97
2023-04-30T21:02:39.656Z,5.60
2023-04-30T21:03:44.182Z,5.50
2023-04-30T21:04:48.503Z,5.82
2023-04-30T21:05:57.417Z,5.90
2023-04-30T21:07:08.508Z,5.95
2023-04-30T21:08:14.944Z,5.82
2023-04-30T21:09:18.963Z,5.72
2023-04-30T21:10:24.210Z,5.10
2023-04-30T21:11:34.434Z,6.03
2023-04-30T21:13:42.236Z,5.35
2023-04-30T21:14:45.471Z,5.93
2023-04-30T21:15:49.200Z,5.65
2023-04-30T21:17:00.303Z,6.18
2023-04-30T21:18:06.481Z,5.65
2023-04-30T21:19:33.159Z,7.40
2023-04-30T21:20:36.407Z,6.20
2023-04-30T21:21:43.262Z,6.03
2023-04-30T21:22:49.612Z,5.57
2023-04-30T21:23:58.166Z,5.53
2023-04-30T21:25:04.359Z,6.25
2023-04-30T21:26:13.073Z,5.57
2023-04-30T21:27:27.935Z,6.20
2023-04-30T21:28:35.189Z,6.03
2023-04-30T21:29:47.884Z,5.90
2023-04-30T21:30:54.378Z,5.63
2023-04-30T21:32:06.429Z,5.50
2023-04-30T21:33:12.511Z,5.80
2023-04-30T21:34:19.052Z,5.95
2023-04-30T21:35:24.104Z,6.47
2023-04-30T21:36:31.264Z,6.43
2023-04-30T21:37:34.986Z,6.68
2023-04-30T21:38:45.284Z,6.15
2023-04-30T21:39:50.033Z,6.65
2023-04-30T21:40:53.395Z,7.10
2023-04-30T21:41:59.276Z,7.30
2023-04-30T21:43:06.637Z,7.90
2023-04-30T21:44:12.676Z,8.23
2023-04-30T21:45:19.179Z,8.15
2023-04-30T21:46:24.699Z,9.20
2023-04-30T21:47:32.311Z,8.27
2023-04-30T21:48:41.295Z,7.80
2023-04-30T21:49:45.705Z,8.25
2023-04-30T21:50:53.263Z,7.82
2023-04-30T21:51:59.566Z,7.97
2023-04-30T21:53:04.085Z,8.55
2023-04-30T21:54:08.576Z,8.48
2023-04-30T21:55:14.358Z,8.45
2023-04-30T21:56:21.001Z,7.57
2023-04-30T21:57:28.236Z,8.20
2023-04-30T21:58:31.538Z,7.95
2023-04-30T21:59:42.225Z,8.02
2023-04-30T22:00:47.372Z,7.70
2023-04-30T22:01:56.022Z,7.38
2023-04-30T22:02:59.208Z,8.15
2023-04-30T22:04:08.943Z,7.95
2023-04-30T22:05:16.636Z,7.40
2023-04-30T22:06:27.843Z,7.20
2023-04-30T22:07:35.722Z,7.07
2023-04-30T22:08:40.375Z,7.40
2023-04-30T22:09:45.322Z,7.25
2023-04-30T22:10:50.471Z,7.82
2023-04-30T22:11:57.343Z,7.32
2023-04-30T22:13:01.812Z,6.78
2023-04-30T22:14:05.092Z,7.50
2023-04-30T22:15:09.451Z,7.57
2023-04-30T22:16:16.298Z,7.43
2023-04-30T22:17:21.058Z,9.15
2023-04-30T22:18:24.759Z,8.27
2023-04-30T22:19:28.998Z,8.75
2023-04-30T22:20:52.405Z,8.13
2023-04-30T22:22:01.387Z,7.95
2023-04-30T22:23:04.822Z,7.55
2023-04-30T22:24:08.074Z,7.82
2023-04-30T22:25:11.519Z,7.60
2023-04-30T22:26:15.758Z,8.40
2023-04-30T22:27:19.454Z,8.50
2023-04-30T22:28:54.548Z,8.13
2023-04-30T22:29:59.107Z,9.13
2023-04-30T22:31:34.348Z,8.57
2023-04-30T22:32:42.728Z,7.95
2023-04-30T22:33:46.670Z,7.65
2023-04-30T22:34:50.802Z,8.50
2023-04-30T22:35:56.237Z,8.45
2023-04-30T22:37:04.164Z,8.38
2023-04-30T22:38:08.842Z,8.18
2023-04-30T22:39:13.038Z,8.48
2023-04-30T22:40:19.327Z,8.57
2023-04-30T22:41:24.706Z,8.65
2023-04-30T22:42:36.745Z,23.63
2023-04-30T22:43:41.407Z,13.10
2023-04-30T22:44:46.442Z,9.00
2023-04-30T22:45:52.542Z,8.73
2023-04-30T22:47:27.107Z,8.77
2023-04-30T22:48:35.308Z,8.68
2023-04-30T22:49:39.143Z,8.98
2023-04-30T22:50:42.550Z,8.10
2023-04-30T22:51:46.322Z,8.38
2023-04-30T22:52:55.280Z,8.88
2023-04-30T22:53:58.952Z,8.27
2023-04-30T22:55:05.694Z,8.63
2023-04-30T22:56:10.118Z,8.93
2023-04-30T22:57:17.100Z,8.55
2023-04-30T22:58:29.987Z,8.57
2023-04-30T22:59:36.194Z,9.13
2023-04-30T23:00:41.359Z,8.73
2023-04-30T23:01:45.227Z,8.27
2023-04-30T23:02:56.349Z,8.23
2023-04-30T23:04:00.663Z,7.85
2023-04-30T23:05:08.195Z,8.05
2023-04-30T23:06:13.904Z,7.35
2023-04-30T23:07:19.024Z,8.02
2023-04-30T23:08:23.735Z,8.30
2023-04-30T23:09:30.238Z,8.00
2023-04-30T23:10:35.953Z,8.18
2023-04-30T23:11:41.175Z,8.82
2023-04-30T23:12:55.812Z,8.90
2023-04-30T23:14:02.729Z,8.23
2023-04-30T23:15:08.923Z,8.60
2023-04-30T23:16:14.744Z,8.35
2023-04-30T23:17:23.605Z,8.35
2023-04-30T23:18:36.555Z,8.73
2023-04-30T23:19:39.686Z,8.70
2023-04-30T23:20:44.910Z,8.52
2023-04-30T23:21:53.385Z,9.45
2023-04-30T23:22:57.458Z,9.38
2023-04-30T23:24:02.502Z,8.93
2023-04-30T23:25:07.117Z,8.82
2023-04-30T23:26:12.726Z,9.30
2023-04-30T23:27:21.220Z,9.77
2023-04-30T23:28:30.604Z,9.30
2023-04-30T23:29:35.658Z,8.93
2023-04-30T23:30:41.691Z,10.27
2023-04-30T23:31:45.999Z,10.52
2023-04-30T23:32:48.958Z,9.10
2023-04-30T23:33:59.029Z,10.52
2023-04-30T23:35:02.259Z,9.25
2023-04-30T23:36:06.808Z,9.77
2023-04-30T23:37:36.135Z,8.95
2023-04-30T23:38:42.956Z,9.52
2023-04-30T23:39:50.619Z,9.35
2023-04-30T23:40:56.741Z,9.88
2023-04-30T23:42:04.693Z,9.50
2023-04-30T23:43:07.878Z,9.02
2023-04-30T23:44:13.716Z,9.05
2023-04-30T23:45:17.103Z,9.15
2023-04-30T23:46:20.797Z,9.73
2023-04-30T23:47:29.241Z,8.82
2023-04-30T23:48:32.973Z,9.02
2023-04-30T23:49:48.384Z,8.98
2023-04-30T23:51:00.048Z,9.05
2023-04-30T23:52:10.016Z,8.95
2023-04-30T23:53:12.716Z,9.40
2023-04-30T23:54:16.258Z,9.30
2023-04-30T23:55:20.861Z,9.23
2023-04-30T23:56:25.385Z,9.45
2023-04-30T23:57:31.031Z,8.85
2023-04-30T23:58:43.270Z,9.48
2023-04-30T23:59:49.187Z,9.27
